Five Points, Pennsylvania
Current Conditions -  °F | °C
As of 9:42 PM on Wednesday 22 Oct 2014 (Local Time) from KRDG Reporting Station
Overcast Overcast  
Wind Chill: 53°   Ceiling: 3500
Heat Index: 53°   Visibility: 10mi
Dew Point: 45°   Wind: 16mph
Humidity: 74%   Direction: 330°NNW
Pressure: 29.9"   Gusts: NA
Location:  40.3351°N, 75.8521°W
Report Text: KRDG 230142Z 33014KT 10SM SCT029 BKN035 OVC050 12/07 A2990 RMK AO2 RAE02 P0000 T01170072
Loading
Personal Weather Stations






























Interactive Weather Map
Tropical Storm Tracking
New forecast layout! Learn more

10-Day Weather Forecast

Advertisements
Track Severe Weather on mobile